Time;durP1;ratioP1;P1;durP2;ratioP2;P2;SDS_P1;SDS_P2;PMS_P1;PMS_P2;Temp;Humidity;BMP_temperature;BMP_pressure;BME280_temperature;BME280_humidity;BME280_pressure;Samples;Min_cycle;Max_cycle;Signal;HPM_P1;HPM_P2
2023/04/19 00:02:48;;;;;;;;;;;17.40;62.20;;;;;;10250130;28;92919;-65
2023/04/19 00:07:50;;;;;;;;;;;17.30;61.10;;;;;;10247820;28;93468;-66
2023/04/19 00:12:51;;;;;;;;;;;17.40;61.00;;;;;;10229643;28;93284;-66
2023/04/19 00:17:53;;;;;;;;;;;17.40;61.00;;;;;;10246294;28;95887;-66
2023/04/19 00:22:57;;;;;;;;;;;17.30;60.90;;;;;;10247218;28;94508;-66
2023/04/19 00:27:59;;;;;;;;;;;17.40;61.00;;;;;;10230473;28;94716;-66
2023/04/19 00:33:01;;;;;;;;;;;17.30;60.90;;;;;;10247046;28;95011;-66
2023/04/19 00:38:03;;;;;;;;;;;17.40;60.90;;;;;;10247919;28;94059;-66
2023/04/19 00:43:04;;;;;;;;;;;17.30;60.80;;;;;;10230598;28;93767;-66
2023/04/19 00:48:06;;;;;;;;;;;17.30;60.80;;;;;;10245867;28;93819;-66
2023/04/19 00:53:09;;;;;;;;;;;17.30;60.80;;;;;;10230264;28;92417;-65
2023/04/19 00:58:10;;;;;;;;;;;17.30;60.80;;;;;;10246672;28;93636;-65
2023/04/19 01:03:12;;;;;;;;;;;17.30;60.80;;;;;;10246022;28;93078;-65
2023/04/19 01:08:15;;;;;;;;;;;17.30;60.80;;;;;;10244166;28;96864;-65
2023/04/19 01:13:17;;;;;;;;;;;17.30;60.80;;;;;;10246737;28;94393;-66
2023/04/19 01:18:18;;;;;;;;;;;17.30;60.80;;;;;;10247285;28;93250;-65
2023/04/19 01:23:20;;;;;;;;;;;17.30;60.70;;;;;;10249538;28;94058;-65
2023/04/19 01:28:21;;;;;;;;;;;17.20;60.70;;;;;;10235713;28;93453;-66
2023/04/19 01:33:23;;;;;;;;;;;17.20;60.70;;;;;;10253790;28;93338;-66
2023/04/19 01:38:25;;;;;;;;;;;17.20;60.70;;;;;;10253258;28;94240;-66
2023/04/19 01:43:27;;;;;;;;;;;17.20;60.70;;;;;;10253980;28;93605;-66
2023/04/19 01:48:29;;;;;;;;;;;17.20;60.70;;;;;;10234438;28;94611;-66
2023/04/19 01:53:30;;;;;;;;;;;17.20;60.70;;;;;;10253159;28;94431;-66
2023/04/19 01:58:32;;;;;;;;;;;17.20;60.70;;;;;;10232450;28;96963;-66
2023/04/19 02:03:34;;;;;;;;;;;17.20;60.70;;;;;;10251655;28;93437;-66
2023/04/19 02:08:36;;;;;;;;;;;17.10;60.60;;;;;;10252324;28;94472;-66
2023/04/19 02:13:38;;;;;;;;;;;17.10;60.60;;;;;;10233251;28;94609;-66
2023/04/19 02:18:40;;;;;;;;;;;17.10;60.60;;;;;;10235180;28;94124;-66
2023/04/19 02:23:42;;;;;;;;;;;17.10;60.60;;;;;;10251629;28;93464;-66
2023/04/19 02:28:43;;;;;;;;;;;17.10;60.60;;;;;;10251547;28;94322;-66
2023/04/19 02:33:45;;;;;;;;;;;17.10;61.60;;;;;;10251485;28;92692;-66
2023/04/19 02:38:47;;;;;;;;;;;17.10;60.50;;;;;;10251345;28;93454;-66
2023/04/19 02:43:49;;;;;;;;;;;17.10;60.60;;;;;;10249971;28;94302;-65
2023/04/19 02:48:51;;;;;;;;;;;17.10;60.60;;;;;;10248382;28;96788;-66
2023/04/19 02:53:52;;;;;;;;;;;17.10;60.50;;;;;;10250923;28;94807;-66
2023/04/19 02:58:55;;;;;;;;;;;17.00;60.50;;;;;;10250382;28;93410;-66
2023/04/19 03:03:57;;;;;;;;;;;17.00;60.50;;;;;;10250722;28;93261;-67
2023/04/19 03:08:59;;;;;;;;;;;17.00;60.50;;;;;;10250696;28;93279;-66
2023/04/19 03:14:01;;;;;;;;;;;17.00;60.50;;;;;;10250696;28;93499;-66
2023/04/19 03:19:02;;;;;;;;;;;17.00;60.40;;;;;;10249940;28;93537;-66
2023/04/19 03:24:04;;;;;;;;;;;17.00;60.50;;;;;;10251928;28;93479;-65
2023/04/19 03:29:06;;;;;;;;;;;17.00;60.50;;;;;;10248929;28;93434;-66
2023/04/19 03:34:07;;;;;;;;;;;17.00;60.40;;;;;;10249480;28;94596;-66
2023/04/19 03:39:09;;;;;;;;;;;17.00;60.40;;;;;;10247570;28;96816;-66
2023/04/19 03:44:11;;;;;;;;;;;17.00;60.50;;;;;;10249199;28;94261;-66
2023/04/19 05:07:55;;;;;;;;;;;17.00;59.40;;;;;;10093329;28;93293;-65
2023/04/19 05:12:57;;;;;;;;;;;17.00;59.30;;;;;;10078262;28;94636;-66
2023/04/19 05:17:58;;;;;;;;;;;17.10;59.20;;;;;;10094037;28;93833;-66
2023/04/19 05:23:02;;;;;;;;;;;17.00;60.10;;;;;;10095393;28;93076;-66
2023/04/19 05:28:04;;;;;;;;;;;17.00;59.00;;;;;;10093817;28;93701;-67
2023/04/19 05:33:05;;;;;;;;;;;17.00;60.00;;;;;;10094119;28;93356;-65
2023/04/19 05:38:07;;;;;;;;;;;17.10;60.20;;;;;;10092123;28;95633;-66
2023/04/19 05:43:09;;;;;;;;;;;17.00;59.80;;;;;;10095075;28;94483;-65
2023/04/19 05:48:11;;;;;;;;;;;17.00;59.70;;;;;;10125887;28;93821;-66
2023/04/19 05:53:12;;;;;;;;;;;17.00;59.70;;;;;;10214021;28;92783;-65
2023/04/19 05:58:14;;;;;;;;;;;17.00;59.80;;;;;;10194912;28;94081;-66
2023/04/19 06:03:16;;;;;;;;;;;17.00;59.80;;;;;;10209501;28;93705;-65
2023/04/19 06:08:18;;;;;;;;;;;17.00;59.90;;;;;;10212879;28;94357;-66
2023/04/19 06:13:20;;;;;;;;;;;17.00;59.80;;;;;;10195140;28;93828;-66
2023/04/19 06:18:22;;;;;;;;;;;17.00;59.90;;;;;;10212006;28;93346;-65
2023/04/19 06:23:24;;;;;;;;;;;16.90;59.90;;;;;;10213149;28;93174;-66
2023/04/19 06:28:26;;;;;;;;;;;16.90;59.90;;;;;;10208929;28;96844;-66
2023/04/19 06:33:27;;;;;;;;;;;16.90;59.90;;;;;;10211731;28;94128;-65
2023/04/19 06:38:29;;;;;;;;;;;16.90;59.90;;;;;;10194152;28;94595;-66
2023/04/19 06:43:31;;;;;;;;;;;16.90;59.90;;;;;;10211475;28;94631;-66
2023/04/19 06:48:33;;;;;;;;;;;16.90;59.90;;;;;;10211447;28;94278;-66
2023/04/19 06:53:35;;;;;;;;;;;16.90;59.70;;;;;;10210307;28;93517;-65
2023/04/19 06:58:37;;;;;;;;;;;16.90;59.60;;;;;;10210835;28;93558;-66
2023/04/19 07:03:39;;;;;;;;;;;17.00;59.50;;;;;;10212714;28;94099;-65
2023/04/19 07:08:41;;;;;;;;;;;17.00;59.40;;;;;;10209720;28;93573;-65
2023/04/19 07:13:49;;;;;;;;;;;17.00;59.30;;;;;;10210635;28;94540;-65
2023/04/19 07:18:51;;;;;;;;;;;17.00;59.30;;;;;;10206744;28;96625;-65
2023/04/19 07:23:53;;;;;;;;;;;17.00;59.30;;;;;;10192031;28;93875;-65
2023/04/19 07:28:55;;;;;;;;;;;17.00;59.30;;;;;;10185232;28;94724;-65
2023/04/19 07:33:56;;;;;;;;;;;17.10;59.40;;;;;;10192060;28;94508;-66
2023/04/19 07:38:58;;;;;;;;;;;17.10;59.60;;;;;;10209906;28;94543;-66
2023/04/19 07:44:00;;;;;;;;;;;17.10;59.40;;;;;;10191805;28;93875;-65
2023/04/19 07:49:01;;;;;;;;;;;17.10;59.40;;;;;;10191627;28;95054;-66
2023/04/19 07:54:03;;;;;;;;;;;17.10;59.40;;;;;;10209319;28;93165;-65
2023/04/19 07:59:05;;;;;;;;;;;17.10;59.40;;;;;;10207719;28;92547;-66
2023/04/19 08:04:10;;;;;;;;;;;17.10;59.50;;;;;;10209004;28;94608;-65
2023/04/19 08:09:12;;;;;;;;;;;17.10;59.60;;;;;;10206023;28;96753;-65
2023/04/19 08:14:14;;;;;;;;;;;17.10;59.70;;;;;;10209221;28;92793;-65
2023/04/19 08:19:33;;;;;;;;;;;17.10;59.80;;;;;;10208162;28;94557;-66
2023/04/19 08:24:35;;;;;;;;;;;17.10;59.80;;;;;;10207876;28;94439;-65
2023/04/19 08:29:39;;;;;;;;;;;17.20;59.90;;;;;;10207940;28;93291;-66
2023/04/19 08:34:41;;;;;;;;;;;17.20;59.80;;;;;;10206716;28;93331;-66
2023/04/19 08:39:43;;;;;;;;;;;17.20;59.70;;;;;;10207326;28;93879;-65
2023/04/19 08:44:45;;;;;;;;;;;17.20;59.70;;;;;;10207207;28;92331;-66
2023/04/19 08:49:51;;;;;;;;;;;17.20;59.70;;;;;;10207189;28;93981;-65
2023/04/19 08:55:09;;;;;;;;;;;17.30;59.70;;;;;;10207892;28;94580;-66
2023/04/19 09:00:11;;;;;;;;;;;17.30;59.60;;;;;;10204436;28;95928;-66
2023/04/19 09:05:13;;;;;;;;;;;17.30;59.60;;;;;;10207607;28;94329;-66
2023/04/19 09:10:17;;;;;;;;;;;17.30;59.60;;;;;;10207565;28;93496;-65
2023/04/19 09:15:33;;;;;;;;;;;17.30;59.50;;;;;;10206246;28;93813;-65
2023/04/19 09:20:38;;;;;;;;;;;17.40;60.00;;;;;;10206829;28;94477;-65
2023/04/19 09:25:59;;;;;;;;;;;17.40;59.40;;;;;;10206468;28;94533;-66
2023/04/19 09:31:13;;;;;;;;;;;17.40;59.20;;;;;;10190015;28;94218;-65
2023/04/19 09:36:35;;;;;;;;;;;17.50;59.10;;;;;;10206960;28;95622;-66
2023/04/19 09:41:50;;;;;;;;;;;17.50;59.90;;;;;;10206373;28;93112;-65
2023/04/19 09:46:52;;;;;;;;;;;17.60;58.80;;;;;;10212039;28;93408;-65
2023/04/19 09:51:55;;;;;;;;;;;17.70;58.70;;;;;;10210354;28;96847;-65
2023/04/19 09:56:57;;;;;;;;;;;17.80;58.50;;;;;;10196006;28;93488;-65
2023/04/19 10:02:03;;;;;;;;;;;17.90;58.30;;;;;;10196032;28;94761;-66
2023/04/19 10:07:05;;;;;;;;;;;18.00;58.00;;;;;;10212627;28;94768;-65
2023/04/19 10:12:27;;;;;;;;;;;18.10;57.90;;;;;;10211598;28;92743;-66
2023/04/19 10:17:48;;;;;;;;;;;18.10;57.70;;;;;;10212367;28;93132;-66
2023/04/19 10:22:50;;;;;;;;;;;18.10;57.50;;;;;;10211495;28;93278;-65
2023/04/19 10:27:52;;;;;;;;;;;18.20;57.40;;;;;;10196413;28;93579;-65
2023/04/19 10:32:55;;;;;;;;;;;18.20;57.30;;;;;;10212032;28;94173;-65
2023/04/19 10:38:11;;;;;;;;;;;18.20;57.30;;;;;;10210893;28;93504;-65
2023/04/19 10:43:12;;;;;;;;;;;18.20;57.30;;;;;;10209558;28;96982;-66
2023/04/19 10:48:29;;;;;;;;;;;18.20;57.30;;;;;;10210488;28;93525;-65
2023/04/19 10:53:43;;;;;;;;;;;18.20;57.30;;;;;;10194170;28;94079;-65
2023/04/19 10:59:00;;;;;;;;;;;18.20;57.20;;;;;;10210456;28;94498;-66
2023/04/19 11:04:02;;;;;;;;;;;18.20;57.30;;;;;;10211079;28;93527;-66
2023/04/19 11:09:04;;;;;;;;;;;18.20;57.20;;;;;;10211232;28;93671;-66
2023/04/19 11:14:06;;;;;;;;;;;18.20;57.30;;;;;;10211063;28;94878;-66
2023/04/19 11:19:08;;;;;;;;;;;18.10;57.10;;;;;;10211871;28;93747;-66
2023/04/19 11:24:10;;;;;;;;;;;18.10;57.30;;;;;;10210312;28;94526;-66
2023/04/19 11:29:12;;;;;;;;;;;18.10;57.40;;;;;;10210353;28;94152;-65
2023/04/19 11:34:14;;;;;;;;;;;18.10;57.40;;;;;;10208295;28;96259;-64
2023/04/19 11:39:17;;;;;;;;;;;18.10;57.40;;;;;;10210306;28;94466;-65
2023/04/19 11:44:19;;;;;;;;;;;18.00;57.40;;;;;;10210355;28;93708;-65
2023/04/19 11:49:31;;;;;;;;;;;18.00;57.40;;;;;;10208408;28;94660;-65
2023/04/19 11:54:33;;;;;;;;;;;18.00;57.50;;;;;;10208880;28;94600;-65
2023/04/19 11:59:35;;;;;;;;;;;18.00;57.50;;;;;;10209821;28;93948;-65
2023/04/19 12:04:37;;;;;;;;;;;18.00;57.50;;;;;;10208862;28;93841;-66
2023/04/19 12:09:39;;;;;;;;;;;17.90;57.50;;;;;;10209742;28;93130;-66
2023/04/19 12:14:50;;;;;;;;;;;17.90;57.20;;;;;;10208977;28;92628;-66
2023/04/19 12:19:52;;;;;;;;;;;17.90;57.30;;;;;;10208357;28;95982;-65
2023/04/19 12:24:54;;;;;;;;;;;17.90;57.00;;;;;;10187932;28;96952;-65
2023/04/19 12:29:56;;;;;;;;;;;17.90;56.90;;;;;;10191741;28;93506;-65
2023/04/19 12:34:58;;;;;;;;;;;17.90;57.10;;;;;;10190866;28;94141;-65
2023/04/19 12:40:00;;;;;;;;;;;17.90;57.20;;;;;;10191309;28;94456;-65
2023/04/19 12:45:01;;;;;;;;;;;17.90;56.70;;;;;;10207543;28;94588;-65
2023/04/19 12:50:03;;;;;;;;;;;17.90;57.00;;;;;;10207260;28;93434;-65
2023/04/19 12:55:05;;;;;;;;;;;17.90;57.40;;;;;;10208103;28;93528;-66
2023/04/19 13:00:08;;;;;;;;;;;17.90;57.40;;;;;;10189973;28;93762;-65
2023/04/19 13:05:11;;;;;;;;;;;18.00;57.30;;;;;;10206850;28;93560;-66
2023/04/19 13:10:13;;;;;;;;;;;18.00;57.60;;;;;;10206242;28;93592;-66
2023/04/19 13:15:15;;;;;;;;;;;18.00;57.70;;;;;;10205669;28;96877;-66
2023/04/19 13:20:19;;;;;;;;;;;18.00;57.50;;;;;;10210121;28;93539;-65
2023/04/19 13:25:21;;;;;;;;;;;18.00;57.10;;;;;;10215231;28;93401;-66
2023/04/19 13:30:23;;;;;;;;;;;18.10;57.50;;;;;;10195892;28;93159;-65
2023/04/19 13:35:25;;;;;;;;;;;18.00;57.20;;;;;;10214502;28;94241;-66
2023/04/19 13:40:27;;;;;;;;;;;18.00;57.30;;;;;;10196531;28;94661;-66
2023/04/19 13:45:28;;;;;;;;;;;18.00;57.40;;;;;;10196509;28;93282;-66
2023/04/19 13:50:30;;;;;;;;;;;18.10;57.60;;;;;;10213692;28;93814;-66
2023/04/19 13:55:32;;;;;;;;;;;18.10;57.50;;;;;;10212859;28;92591;-66
2023/04/19 14:00:34;;;;;;;;;;;18.10;57.60;;;;;;10212769;28;94366;-66
2023/04/19 14:05:36;;;;;;;;;;;18.10;57.50;;;;;;10210963;28;96842;-66
2023/04/19 14:10:38;;;;;;;;;;;18.10;57.60;;;;;;10212326;28;93411;-66
2023/04/19 14:15:40;;;;;;;;;;;18.10;58.60;;;;;;10211646;28;94484;-66
2023/04/19 14:20:42;;;;;;;;;;;18.10;57.50;;;;;;10212953;28;94791;-66
2023/04/19 14:25:44;;;;;;;;;;;18.10;57.40;;;;;;10212494;28;94631;-66
2023/04/19 14:30:46;;;;;;;;;;;18.10;57.60;;;;;;10210605;28;93277;-66
2023/04/19 14:35:48;;;;;;;;;;;18.00;57.70;;;;;;10211270;28;94539;-66
2023/04/19 14:40:50;;;;;;;;;;;18.00;57.80;;;;;;10217788;28;92717;-66
2023/04/19 14:45:52;;;;;;;;;;;18.00;57.80;;;;;;10251268;28;94038;-66
2023/04/19 14:50:54;;;;;;;;;;;18.10;57.60;;;;;;10233325;28;93681;-66
2023/04/19 14:55:56;;;;;;;;;;;18.10;57.70;;;;;;10248990;28;96507;-65
2023/04/19 15:00:58;;;;;;;;;;;18.10;57.80;;;;;;10251323;28;94698;-66
2023/04/19 15:06:00;;;;;;;;;;;18.10;57.90;;;;;;10251248;28;93707;-66
2023/04/19 15:11:01;;;;;;;;;;;18.10;57.80;;;;;;10233317;28;93503;-66
2023/04/19 15:16:04;;;;;;;;;;;18.10;57.90;;;;;;10250232;28;93439;-66
2023/04/19 15:21:06;;;;;;;;;;;18.10;58.00;;;;;;10249710;28;93413;-66
2023/04/19 15:26:08;;;;;;;;;;;18.10;58.10;;;;;;10250465;28;94460;-66
2023/04/19 15:31:10;;;;;;;;;;;18.10;58.10;;;;;;10250540;28;93673;-66
2023/04/19 15:36:12;;;;;;;;;;;18.10;58.10;;;;;;10249684;28;94079;-66
2023/04/19 15:41:13;;;;;;;;;;;18.10;58.30;;;;;;10249707;28;94368;-66
2023/04/19 15:46:15;;;;;;;;;;;18.20;58.30;;;;;;10246374;28;95727;-66
2023/04/19 15:51:17;;;;;;;;;;;18.20;58.40;;;;;;10248274;28;93491;-66
2023/04/19 15:56:18;;;;;;;;;;;18.30;58.50;;;;;;10249148;28;93735;-66
2023/04/19 16:01:22;;;;;;;;;;;18.30;58.40;;;;;;10249407;28;93461;-65
2023/04/19 16:06:23;;;;;;;;;;;18.40;58.50;;;;;;10250147;28;93533;-65
2023/04/19 16:11:25;;;;;;;;;;;18.40;58.50;;;;;;10249949;28;93311;-65
2023/04/19 16:16:30;;;;;;;;;;;18.50;58.50;;;;;;10249471;28;94332;-67
2023/04/19 16:21:31;;;;;;;;;;;18.50;58.50;;;;;;10246762;28;92245;-66
2023/04/19 16:26:33;;;;;;;;;;;18.50;58.70;;;;;;10245628;28;94147;-66
2023/04/19 16:31:35;;;;;;;;;;;18.60;59.20;;;;;;10230214;28;93906;-66
2023/04/19 16:36:37;;;;;;;;;;;18.70;59.30;;;;;;10227241;28;96860;-66
2023/04/19 16:41:38;;;;;;;;;;;18.80;59.60;;;;;;10246179;28;93455;-66
2023/04/19 16:46:40;;;;;;;;;;;18.80;59.40;;;;;;10243206;28;93335;-67
2023/04/19 16:51:42;;;;;;;;;;;18.80;59.40;;;;;;10232316;28;93635;-71
2023/04/19 16:56:44;;;;;;;;;;;18.80;59.50;;;;;;10234252;28;94402;-67
2023/04/19 17:01:45;;;;;;;;;;;18.80;62.20;;;;;;10205446;28;93236;-68
2023/04/19 17:06:47;;;;;;;;;;;18.90;64.60;;;;;;10203826;28;93783;-65
2023/04/19 17:11:49;;;;;;;;;;;19.00;65.70;;;;;;10205010;28;93713;-67
2023/04/19 17:16:51;;;;;;;;;;;19.10;65.00;;;;;;10185459;28;93473;-65
2023/04/19 17:21:53;;;;;;;;;;;19.20;63.60;;;;;;10184053;28;93954;-66
2023/04/19 17:26:55;;;;;;;;;;;19.40;62.90;;;;;;10196796;28;95845;-67
2023/04/19 17:31:57;;;;;;;;;;;19.40;62.70;;;;;;10201487;28;94338;-69
2023/04/19 17:36:59;;;;;;;;;;;19.40;62.50;;;;;;10186156;28;94799;-69
2023/04/19 17:42:01;;;;;;;;;;;19.40;62.70;;;;;;10205517;28;94730;-66
2023/04/19 17:47:02;;;;;;;;;;;19.40;61.70;;;;;;10202692;28;94473;-65
2023/04/19 17:52:04;;;;;;;;;;;19.30;61.30;;;;;;10205661;28;93983;-67
2023/04/19 17:57:06;;;;;;;;;;;19.20;61.10;;;;;;10205503;28;93834;-67
2023/04/19 18:02:08;;;;;;;;;;;19.10;61.70;;;;;;10205114;28;92995;-66
2023/04/19 18:07:11;;;;;;;;;;;19.10;60.50;;;;;;10210314;28;94350;-66
2023/04/19 18:12:12;;;;;;;;;;;19.00;60.60;;;;;;10211190;28;93353;-66
2023/04/19 18:17:14;;;;;;;;;;;19.00;60.60;;;;;;10209716;28;95807;-66
2023/04/19 18:22:16;;;;;;;;;;;19.00;60.70;;;;;;10209828;28;93181;-66
2023/04/19 18:27:17;;;;;;;;;;;18.90;60.80;;;;;;10206108;28;93629;-67
2023/04/19 18:32:21;;;;;;;;;;;18.90;60.70;;;;;;10194354;28;93478;-66
2023/04/19 18:37:23;;;;;;;;;;;18.90;60.70;;;;;;10191192;28;93006;-67
2023/04/19 18:42:25;;;;;;;;;;;18.90;60.60;;;;;;10209170;28;94444;-67
2023/04/19 18:47:27;;;;;;;;;;;18.80;60.50;;;;;;10190800;28;93634;-67
2023/04/19 18:52:29;;;;;;;;;;;18.80;60.10;;;;;;10212203;28;93743;-67
2023/04/19 18:57:31;;;;;;;;;;;18.70;60.10;;;;;;10210670;28;93455;-66
2023/04/19 19:02:36;;;;;;;;;;;18.70;60.00;;;;;;10210935;28;93799;-67
2023/04/19 19:07:41;;;;;;;;;;;18.70;59.80;;;;;;10208807;28;96867;-67
2023/04/19 19:12:43;;;;;;;;;;;18.60;59.90;;;;;;10210083;28;93295;-66
2023/04/19 19:17:44;;;;;;;;;;;18.60;59.80;;;;;;10210818;28;93488;-67
2023/04/19 19:22:50;;;;;;;;;;;18.60;59.90;;;;;;10210556;28;93411;-66
2023/04/19 19:27:53;;;;;;;;;;;18.60;60.00;;;;;;10210406;28;93749;-67
2023/04/19 19:32:58;;;;;;;;;;;18.50;60.00;;;;;;10210050;28;94231;-67
2023/04/19 19:38:00;;;;;;;;;;;18.50;60.10;;;;;;10209708;28;94519;-67
2023/04/19 19:43:02;;;;;;;;;;;18.50;60.10;;;;;;10210756;28;94095;-66
2023/04/19 19:48:04;;;;;;;;;;;18.50;60.20;;;;;;10208587;28;93581;-67
2023/04/19 19:53:08;;;;;;;;;;;18.40;60.10;;;;;;10208432;28;113876;-67
2023/04/19 19:58:10;;;;;;;;;;;18.40;60.10;;;;;;10206061;28;95871;-66
2023/04/19 20:03:32;;;;;;;;;;;18.40;60.00;;;;;;10208616;28;95401;-67
2023/04/19 20:08:40;;;;;;;;;;;18.40;59.90;;;;;;10190799;28;94390;-67
2023/04/19 20:13:45;;;;;;;;;;;18.30;60.00;;;;;;10191967;28;94420;-67
2023/04/19 20:18:47;;;;;;;;;;;18.40;60.10;;;;;;10205521;28;93201;-67
2023/04/19 20:23:49;;;;;;;;;;;18.30;60.00;;;;;;10207561;28;93478;-67
2023/04/19 20:28:51;;;;;;;;;;;18.30;59.90;;;;;;10206826;28;93149;-67
2023/04/19 20:33:53;;;;;;;;;;;18.30;59.90;;;;;;10168526;28;93262;-67
2023/04/19 20:38:55;;;;;;;;;;;18.30;59.90;;;;;;10206554;28;93403;-66
2023/04/19 20:43:58;;;;;;;;;;;18.30;59.90;;;;;;10206350;28;94710;-66
2023/04/19 20:49:00;;;;;;;;;;;18.30;59.80;;;;;;10203530;28;96926;-67
2023/04/19 20:54:02;;;;;;;;;;;18.30;59.70;;;;;;10207501;28;93557;-67
2023/04/19 20:59:04;;;;;;;;;;;18.20;59.60;;;;;;10204614;28;93502;-67
2023/04/19 21:04:07;;;;;;;;;;;18.20;59.40;;;;;;10206326;28;93323;-67
2023/04/19 21:09:09;;;;;;;;;;;18.20;59.10;;;;;;10206075;28;93787;-67
2023/04/19 21:14:11;;;;;;;;;;;18.10;59.00;;;;;;10207024;28;94835;-66
2023/04/19 21:19:12;;;;;;;;;;;18.10;58.80;;;;;;10206999;28;94507;-66
2023/04/19 21:24:14;;;;;;;;;;;18.10;59.70;;;;;;10206455;28;92915;-67
2023/04/19 21:29:16;;;;;;;;;;;18.00;58.50;;;;;;10205625;28;93670;-66
2023/04/19 21:34:18;;;;;;;;;;;18.00;58.40;;;;;;10207576;28;93498;-66
2023/04/19 21:39:20;;;;;;;;;;;18.00;58.40;;;;;;10184295;28;95872;-65
2023/04/19 21:44:21;;;;;;;;;;;18.00;58.30;;;;;;10213917;28;94550;-66
2023/04/19 21:49:23;;;;;;;;;;;18.00;58.20;;;;;;10192039;28;93712;-66
2023/04/19 21:54:25;;;;;;;;;;;18.00;58.10;;;;;;10213470;28;92597;-66
2023/04/19 21:59:35;;;;;;;;;;;18.00;58.00;;;;;;10209682;28;93632;-67
2023/04/19 22:04:38;;;;;;;;;;;18.00;57.90;;;;;;10213374;28;94601;-66
2023/04/19 22:09:40;;;;;;;;;;;18.00;57.80;;;;;;10194269;28;93810;-66
2023/04/19 22:14:42;;;;;;;;;;;17.90;57.70;;;;;;10213950;28;92712;-66
2023/04/19 22:19:45;;;;;;;;;;;18.00;57.60;;;;;;10212860;28;93018;-66
2023/04/19 22:24:47;;;;;;;;;;;17.90;57.40;;;;;;10188583;28;93586;-67
2023/04/19 22:29:58;;;;;;;;;;;17.90;57.30;;;;;;10210462;28;96998;-66
2023/04/19 22:35:00;;;;;;;;;;;17.90;57.50;;;;;;10210901;28;95069;-67
2023/04/19 22:40:04;;;;;;;;;;;17.90;57.10;;;;;;10212295;28;94291;-66
2023/04/19 22:45:06;;;;;;;;;;;17.90;57.00;;;;;;10210612;28;93544;-66
2023/04/19 22:50:07;;;;;;;;;;;17.90;56.90;;;;;;10211116;28;93246;-65
2023/04/19 22:55:09;;;;;;;;;;;17.90;56.80;;;;;;10210830;28;94446;-66
2023/04/19 23:00:11;;;;;;;;;;;17.90;56.70;;;;;;10210694;28;94491;-66
2023/04/19 23:05:13;;;;;;;;;;;17.90;56.60;;;;;;10211738;28;94037;-66
2023/04/19 23:10:17;;;;;;;;;;;17.90;56.40;;;;;;10210370;28;94463;-67
2023/04/19 23:15:22;;;;;;;;;;;17.90;56.20;;;;;;10210261;28;93638;-66
2023/04/19 23:20:23;;;;;;;;;;;17.90;56.30;;;;;;10208660;28;95781;-66
2023/04/19 23:25:25;;;;;;;;;;;17.80;56.10;;;;;;10209230;28;93865;-67
2023/04/19 23:30:28;;;;;;;;;;;17.80;56.00;;;;;;10210526;28;93272;-66
2023/04/19 23:35:30;;;;;;;;;;;17.80;55.90;;;;;;10209352;28;93555;-66
2023/04/19 23:40:31;;;;;;;;;;;17.80;55.90;;;;;;10209615;28;93747;-65
2023/04/19 23:45:33;;;;;;;;;;;17.80;56.90;;;;;;10209444;28;92926;-66
2023/04/19 23:50:35;;;;;;;;;;;17.80;55.90;;;;;;10208688;28;93784;-66
2023/04/19 23:55:37;;;;;;;;;;;17.70;55.90;;;;;;10210402;28;93360;-66
